createdAt,value
2023-06-07T00:00:35.494Z,69.87
2023-06-07T00:01:38.713Z,69.81
2023-06-07T00:02:44.077Z,69.95
2023-06-07T00:03:49.081Z,69.63
2023-06-07T00:04:51.631Z,70.02
2023-06-07T00:05:54.052Z,70.08
2023-06-07T00:07:01.722Z,70.16
2023-06-07T00:08:05.311Z,70.25
2023-06-07T00:09:10.932Z,70.59
2023-06-07T00:10:13.652Z,71.09
2023-06-07T00:11:15.990Z,71.43
2023-06-07T00:12:18.441Z,71.66
2023-06-07T00:13:20.667Z,72.27
2023-06-07T00:14:24.281Z,72.50
2023-06-07T00:15:26.733Z,72.72
2023-06-07T00:16:29.913Z,72.41
2023-06-07T00:17:32.640Z,72.64
2023-06-07T00:18:35.062Z,72.74
2023-06-07T00:19:37.383Z,73.45
2023-06-07T00:20:39.604Z,73.53
2023-06-07T00:21:41.984Z,73.39
2023-06-07T00:22:45.184Z,74.16
2023-06-07T00:23:48.150Z,73.86
2023-06-07T00:24:53.497Z,73.96
2023-06-07T00:25:56.004Z,74.04
2023-06-07T00:26:58.407Z,73.55
2023-06-07T00:28:00.865Z,73.19
2023-06-07T00:29:03.145Z,72.07
2023-06-07T00:30:06.432Z,71.10
2023-06-07T00:31:09.374Z,70.94
2023-06-07T00:32:13.020Z,70.81
2023-06-07T00:33:15.328Z,71.22
2023-06-07T00:34:17.734Z,71.04
2023-06-07T00:35:20.042Z,70.73
2023-06-07T00:36:22.717Z,70.83
2023-06-07T00:37:25.180Z,70.88
2023-06-07T00:38:27.446Z,70.39
2023-06-07T00:39:29.691Z,70.73
2023-06-07T00:40:31.941Z,71.05
2023-06-07T00:41:34.416Z,71.33
2023-06-07T00:42:37.048Z,71.58
2023-06-07T00:43:39.288Z,71.14
2023-06-07T00:44:41.529Z,70.75
2023-06-07T00:45:43.784Z,70.62
2023-06-07T00:46:46.454Z,70.60
2023-06-07T00:47:49.152Z,70.83
2023-06-07T00:48:52.888Z,70.51
2023-06-07T00:49:55.722Z,70.89
2023-06-07T00:50:58.292Z,70.97
2023-06-07T00:52:02.088Z,70.43
2023-06-07T00:53:05.877Z,70.33
2023-06-07T00:54:10.046Z,70.45
2023-06-07T00:55:14.352Z,70.50
2023-06-07T00:56:17.139Z,70.49
2023-06-07T00:57:20.349Z,70.56
2023-06-07T00:58:23.993Z,70.70
2023-06-07T00:59:26.351Z,71.15
2023-06-07T01:00:30.005Z,70.77
2023-06-07T01:01:34.819Z,70.18
2023-06-07T01:02:37.640Z,70.67
2023-06-07T01:03:40.192Z,70.83
2023-06-07T01:04:43.447Z,71.17
2023-06-07T01:05:46.005Z,71.66
2023-06-07T01:06:48.750Z,71.74
2023-06-07T01:07:51.436Z,72.29
2023-06-07T01:08:53.801Z,72.12
2023-06-07T01:09:56.973Z,71.98
2023-06-07T01:11:02.807Z,72.33
2023-06-07T01:12:07.675Z,72.09
2023-06-07T01:13:11.328Z,72.70
2023-06-07T01:14:15.358Z,73.43
2023-06-07T01:15:18.619Z,73.75
2023-06-07T01:16:20.992Z,74.28
2023-06-07T01:17:25.766Z,74.33
2023-06-07T01:18:30.003Z,74.43
2023-06-07T01:19:35.799Z,74.75
2023-06-07T01:20:46.872Z,75.25
2023-06-07T01:21:52.502Z,75.30
2023-06-07T01:22:58.445Z,75.18
2023-06-07T01:24:01.116Z,75.30
2023-06-07T01:25:03.585Z,75.36
2023-06-07T01:26:06.082Z,75.53
2023-06-07T01:27:09.251Z,75.83
2023-06-07T01:28:12.654Z,75.99
2023-06-07T01:29:16.724Z,76.14
2023-06-07T01:30:21.869Z,75.93
2023-06-07T01:31:24.721Z,76.18
2023-06-07T01:32:27.520Z,76.44
2023-06-07T01:33:31.790Z,76.29
2023-06-07T01:34:35.486Z,76.60
2023-06-07T01:35:40.733Z,76.81
2023-06-07T01:36:44.559Z,77.14
2023-06-07T01:37:48.237Z,77.37
2023-06-07T01:38:51.527Z,77.31
2023-06-07T01:39:56.028Z,77.52
2023-06-07T01:41:00.769Z,77.56
2023-06-07T01:42:04.633Z,77.23
2023-06-07T01:43:08.035Z,76.68
2023-06-07T01:44:11.826Z,76.52
2023-06-07T01:45:15.025Z,76.59
2023-06-07T01:46:18.305Z,76.38
2023-06-07T01:47:21.784Z,76.46
2023-06-07T01:48:24.432Z,76.33
2023-06-07T01:49:26.692Z,76.69
2023-06-07T01:50:29.868Z,76.10
2023-06-07T01:51:33.606Z,75.89
2023-06-07T01:52:36.158Z,75.70
2023-06-07T01:53:39.590Z,75.81
2023-06-07T01:54:44.233Z,75.67
2023-06-07T01:55:47.393Z,75.63
2023-06-07T01:57:05.509Z,75.84
2023-06-07T01:58:17.497Z,75.54
2023-06-07T01:59:29.955Z,75.59
2023-06-07T02:00:36.436Z,75.49
2023-06-07T02:01:56.005Z,75.89
2023-06-07T02:03:07.691Z,75.59
2023-06-07T02:04:16.441Z,75.64
2023-06-07T02:05:26.660Z,75.98
2023-06-07T02:06:33.524Z,75.65
2023-06-07T02:07:43.497Z,75.39
2023-06-07T02:08:51.593Z,75.96
2023-06-07T02:09:54.539Z,76.03
2023-06-07T02:10:58.714Z,76.18
2023-06-07T02:12:03.940Z,76.08
2023-06-07T02:13:08.428Z,76.09
2023-06-07T02:14:10.932Z,76.17
2023-06-07T02:15:13.772Z,76.22
2023-06-07T02:16:16.848Z,76.22
2023-06-07T02:17:20.969Z,76.36
2023-06-07T02:18:25.819Z,76.40
2023-06-07T02:19:29.530Z,76.54
2023-06-07T02:20:35.625Z,76.31
2023-06-07T02:21:38.869Z,76.22
2023-06-07T02:22:41.146Z,76.52
2023-06-07T02:23:43.727Z,76.11
2023-06-07T02:24:47.430Z,76.28
2023-06-07T02:25:50.801Z,76.09
2023-06-07T02:26:57.050Z,76.08
2023-06-07T02:28:00.107Z,76.04
2023-06-07T02:29:03.786Z,76.02
2023-06-07T02:30:07.624Z,75.93
2023-06-07T02:31:10.693Z,76.08
2023-06-07T02:32:15.408Z,76.03
2023-06-07T02:33:21.035Z,75.95
2023-06-07T02:34:25.902Z,75.33
2023-06-07T02:35:28.138Z,74.79
2023-06-07T02:36:34.829Z,75.04
2023-06-07T02:37:39.329Z,75.15
2023-06-07T02:38:41.574Z,74.97
2023-06-07T02:39:43.835Z,75.08
2023-06-07T02:40:46.166Z,75.07
2023-06-07T02:41:48.683Z,75.15
2023-06-07T02:42:50.980Z,75.25
2023-06-07T02:43:53.728Z,75.32
2023-06-07T02:44:55.913Z,75.49
2023-06-07T02:45:58.163Z,75.24
2023-06-07T02:47:01.036Z,75.13
2023-06-07T02:48:03.627Z,74.53
2023-06-07T02:49:06.685Z,73.95
2023-06-07T02:50:10.159Z,73.23
2023-06-07T02:51:13.949Z,73.11
2023-06-07T02:52:16.398Z,72.37
2023-06-07T02:53:18.929Z,72.48
2023-06-07T02:54:23.381Z,72.26
2023-06-07T02:55:26.319Z,72.03
2023-06-07T02:56:31.140Z,72.64
2023-06-07T02:57:33.946Z,72.94
2023-06-07T02:58:36.239Z,73.00
2023-06-07T02:59:40.708Z,73.22
2023-06-07T03:00:50.980Z,73.27
2023-06-07T03:01:54.883Z,73.46
2023-06-07T03:02:57.485Z,73.36
2023-06-07T03:04:00.300Z,73.29
2023-06-07T03:05:03.055Z,73.49
2023-06-07T03:06:08.602Z,73.77
2023-06-07T03:07:13.198Z,74.12
2023-06-07T03:08:17.813Z,74.27
2023-06-07T03:09:21.607Z,74.68
2023-06-07T03:10:24.153Z,74.87
2023-06-07T03:11:26.795Z,74.76
2023-06-07T03:12:29.715Z,74.47
2023-06-07T03:13:34.300Z,74.20
2023-06-07T03:14:39.404Z,74.15
2023-06-07T03:15:43.544Z,74.17
2023-06-07T03:16:46.826Z,73.72
2023-06-07T03:17:50.923Z,73.95
2023-06-07T03:18:53.868Z,73.50
2023-06-07T03:19:57.926Z,73.08
2023-06-07T03:21:03.429Z,72.74
2023-06-07T03:22:07.443Z,72.63
2023-06-07T03:23:11.921Z,72.42
2023-06-07T03:24:18.256Z,71.64
2023-06-07T03:25:22.142Z,71.68
2023-06-07T03:26:25.280Z,71.18
2023-06-07T03:27:33.558Z,71.38
2023-06-07T03:28:42.273Z,71.04
2023-06-07T03:29:46.064Z,70.73
2023-06-07T03:30:48.609Z,70.34
2023-06-07T03:31:51.341Z,70.35
2023-06-07T03:32:54.900Z,70.78
2023-06-07T03:33:57.774Z,70.47
2023-06-07T03:35:00.690Z,70.62
2023-06-07T03:36:03.025Z,70.81
2023-06-07T03:37:09.779Z,70.50
2023-06-07T03:38:12.869Z,70.28
2023-06-07T03:39:17.389Z,70.20
2023-06-07T03:40:19.852Z,70.54
2023-06-07T03:41:22.951Z,70.43
2023-06-07T03:42:25.555Z,70.58
2023-06-07T03:43:28.263Z,70.43
2023-06-07T03:44:30.760Z,70.61
2023-06-07T03:45:33.197Z,70.80
2023-06-07T03:46:43.332Z,71.07
2023-06-07T03:47:46.409Z,70.63
2023-06-07T03:48:51.830Z,70.79
2023-06-07T03:49:55.360Z,70.82
2023-06-07T03:50:58.493Z,70.45
2023-06-07T03:52:00.886Z,70.07
2023-06-07T03:53:04.948Z,69.91
2023-06-07T03:54:09.410Z,69.79
2023-06-07T03:55:15.226Z,69.51
2023-06-07T03:56:18.762Z,68.67
2023-06-07T03:57:20.986Z,69.16
2023-06-07T03:58:26.005Z,68.84
2023-06-07T03:59:28.796Z,68.72
2023-06-07T04:00:31.876Z,68.61
2023-06-07T04:01:34.927Z,68.38
2023-06-07T04:02:37.324Z,68.32
2023-06-07T04:03:40.674Z,68.32
2023-06-07T04:04:44.377Z,68.08
2023-06-07T04:05:46.924Z,68.04
2023-06-07T04:06:50.084Z,67.96
2023-06-07T04:07:54.305Z,67.24
2023-06-07T04:08:58.202Z,67.32
2023-06-07T04:10:01.244Z,66.98
2023-06-07T04:11:03.754Z,67.29
2023-06-07T04:12:06.764Z,67.26
2023-06-07T04:13:10.061Z,66.77
2023-06-07T04:14:13.632Z,66.95
2023-06-07T04:15:16.521Z,67.17
2023-06-07T04:16:19.105Z,66.92
2023-06-07T04:17:22.660Z,66.79
2023-06-07T04:18:24.918Z,66.26
2023-06-07T04:19:28.448Z,65.85
2023-06-07T04:20:31.656Z,65.18
2023-06-07T04:21:36.115Z,65.86
2023-06-07T04:22:40.344Z,65.78
2023-06-07T04:23:42.929Z,65.26
2023-06-07T04:24:47.418Z,65.07
2023-06-07T04:25:50.469Z,64.58
2023-06-07T04:26:54.529Z,65.20
2023-06-07T04:28:00.758Z,65.35
2023-06-07T04:29:05.597Z,65.08
2023-06-07T04:30:11.938Z,65.57
2023-06-07T04:31:15.511Z,65.14
2023-06-07T04:32:20.594Z,64.78
2023-06-07T04:33:26.056Z,64.87
2023-06-07T04:34:30.386Z,64.38
2023-06-07T04:35:34.808Z,64.26
2023-06-07T04:36:40.711Z,63.80
2023-06-07T04:37:52.718Z,63.67
2023-06-07T04:38:58.729Z,63.41
2023-06-07T04:40:06.801Z,63.37
2023-06-07T04:41:10.060Z,62.83
2023-06-07T04:42:17.978Z,62.58
2023-06-07T04:43:21.285Z,62.26
2023-06-07T04:44:31.552Z,62.81
2023-06-07T04:45:42.458Z,61.92
2023-06-07T04:46:50.248Z,62.80
2023-06-07T04:47:53.553Z,62.63
2023-06-07T04:48:57.197Z,62.57
2023-06-07T04:50:01.545Z,63.02
2023-06-07T04:51:06.062Z,63.25
2023-06-07T04:52:15.266Z,64.40
2023-06-07T04:53:22.772Z,63.57
2023-06-07T04:54:25.809Z,61.92
2023-06-07T04:55:35.354Z,61.78
2023-06-07T04:56:38.873Z,60.36
2023-06-07T04:57:41.899Z,60.96
2023-06-07T04:58:44.165Z,61.06
2023-06-07T04:59:52.219Z,60.54
2023-06-07T05:00:59.864Z,60.90
2023-06-07T05:02:03.419Z,60.21
2023-06-07T05:03:09.836Z,60.00
2023-06-07T05:04:13.060Z,58.91
2023-06-07T05:05:23.589Z,59.69
2023-06-07T05:06:29.651Z,59.17
2023-06-07T05:07:33.743Z,58.99
2023-06-07T05:08:38.930Z,59.70
2023-06-07T05:09:41.290Z,59.14
2023-06-07T05:10:45.123Z,59.23
2023-06-07T05:11:47.568Z,59.59
2023-06-07T05:12:50.060Z,59.07
2023-06-07T05:13:53.304Z,58.63
2023-06-07T05:14:55.685Z,58.08
2023-06-07T05:15:58.921Z,57.77
2023-06-07T05:17:02.750Z,58.25
2023-06-07T05:18:09.958Z,59.41
2023-06-07T05:19:12.942Z,59.75
2023-06-07T05:20:18.313Z,59.26
2023-06-07T05:21:21.529Z,59.22
2023-06-07T05:22:24.431Z,57.96
2023-06-07T05:23:28.079Z,57.44
2023-06-07T05:24:32.318Z,57.46
2023-06-07T05:25:34.747Z,56.67
2023-06-07T05:26:37.689Z,56.42
2023-06-07T05:27:41.560Z,55.99
2023-06-07T05:28:43.892Z,55.16
2023-06-07T05:29:47.551Z,53.74
2023-06-07T05:30:50.996Z,52.88
2023-06-07T05:31:54.550Z,51.85
2023-06-07T05:32:57.491Z,51.25
2023-06-07T05:33:59.874Z,50.10
2023-06-07T05:35:04.117Z,49.11
2023-06-07T05:36:07.160Z,47.57
2023-06-07T05:37:11.086Z,47.11
2023-06-07T05:38:14.215Z,46.65
2023-06-07T05:39:17.295Z,45.91
2023-06-07T05:40:21.217Z,45.80
2023-06-07T05:41:23.960Z,46.22
2023-06-07T05:42:26.332Z,45.70
2023-06-07T05:43:29.575Z,44.43
2023-06-07T05:44:32.152Z,44.37
2023-06-07T05:45:35.634Z,43.58
2023-06-07T05:46:38.504Z,43.07
2023-06-07T05:47:42.360Z,43.75
2023-06-07T05:48:45.010Z,44.18
2023-06-07T05:49:51.048Z,44.50
2023-06-07T05:50:53.377Z,43.64
2023-06-07T05:51:55.782Z,43.13
2023-06-07T05:52:58.579Z,43.16
2023-06-07T05:54:01.414Z,43.34
2023-06-07T05:55:04.270Z,42.42
2023-06-07T05:56:06.671Z,42.94
2023-06-07T05:57:09.106Z,42.67
2023-06-07T05:58:11.360Z,41.88
2023-06-07T05:59:13.606Z,43.02
2023-06-07T06:00:16.300Z,41.84
2023-06-07T06:01:18.742Z,41.12
2023-06-07T06:02:21.937Z,41.41
2023-06-07T06:03:27.145Z,40.92
2023-06-07T06:04:29.608Z,39.75
2023-06-07T06:05:31.950Z,40.00
2023-06-07T06:06:34.955Z,40.24
2023-06-07T06:07:37.273Z,39.99
2023-06-07T06:08:39.844Z,40.46
2023-06-07T06:09:42.616Z,40.77
2023-06-07T06:10:48.025Z,40.57
2023-06-07T06:11:51.227Z,39.19
2023-06-07T06:12:54.120Z,38.55
2023-06-07T06:13:56.559Z,37.84
2023-06-07T06:14:59.443Z,37.27
2023-06-07T06:16:01.714Z,37.29
2023-06-07T06:17:04.294Z,37.37
2023-06-07T06:18:06.926Z,37.48
2023-06-07T06:19:09.388Z,38.01
2023-06-07T06:20:13.328Z,37.93
2023-06-07T06:21:15.963Z,37.96
2023-06-07T06:22:18.394Z,38.48
2023-06-07T06:23:21.115Z,37.86
2023-06-07T06:24:25.714Z,38.56
2023-06-07T06:25:29.729Z,38.59
2023-06-07T06:26:31.985Z,37.58
2023-06-07T06:27:34.496Z,36.63
2023-06-07T06:28:37.041Z,36.96
2023-06-07T06:29:39.704Z,37.47
2023-06-07T06:30:41.982Z,37.33
2023-06-07T06:31:45.005Z,37.56
2023-06-07T06:32:48.020Z,37.06
2023-06-07T06:33:51.142Z,36.83
2023-06-07T06:34:53.609Z,35.61
2023-06-07T06:35:55.849Z,35.66
2023-06-07T06:37:01.950Z,34.60
2023-06-07T06:38:04.498Z,36.38
2023-06-07T06:39:08.974Z,36.89
2023-06-07T06:40:11.609Z,37.13
2023-06-07T06:41:14.328Z,36.70
2023-06-07T06:42:16.659Z,37.26
2023-06-07T06:43:40.569Z,37.00
2023-06-07T06:44:43.499Z,35.55
2023-06-07T06:45:45.807Z,34.35
2023-06-07T06:46:50.034Z,34.54
2023-06-07T06:47:52.779Z,33.94
2023-06-07T06:49:10.825Z,34.26
2023-06-07T06:50:30.947Z,34.12
2023-06-07T06:51:34.760Z,33.45
2023-06-07T06:52:37.067Z,34.17
2023-06-07T06:53:39.344Z,34.84
2023-06-07T06:54:42.033Z,35.22
2023-06-07T06:55:44.266Z,35.71
2023-06-07T06:56:46.871Z,35.39
2023-06-07T06:57:49.085Z,35.24
2023-06-07T06:58:52.828Z,34.56
2023-06-07T06:59:55.377Z,33.64
2023-06-07T07:00:57.611Z,33.56
2023-06-07T07:02:01.070Z,34.68
2023-06-07T07:03:03.659Z,33.66
2023-06-07T07:04:06.228Z,33.39
2023-06-07T07:05:09.232Z,33.74
2023-06-07T07:06:11.503Z,33.55
2023-06-07T07:07:13.818Z,34.61
2023-06-07T07:08:16.241Z,34.80
2023-06-07T07:09:18.590Z,33.79
2023-06-07T07:10:21.335Z,32.41
2023-06-07T07:11:23.678Z,32.17
2023-06-07T07:12:26.885Z,31.84
2023-06-07T07:13:29.564Z,31.47
2023-06-07T07:14:31.913Z,30.95
2023-06-07T07:15:34.388Z,30.13
2023-06-07T07:16:38.821Z,30.68
2023-06-07T07:17:49.222Z,30.59
2023-06-07T07:18:51.831Z,30.88
2023-06-07T07:19:55.018Z,30.79
2023-06-07T07:20:57.598Z,30.24
2023-06-07T07:21:59.882Z,30.87
2023-06-07T07:23:04.124Z,30.67
2023-06-07T07:24:07.177Z,30.49
2023-06-07T07:25:10.478Z,30.64
2023-06-07T07:26:12.813Z,31.14
2023-06-07T07:27:15.052Z,29.60
2023-06-07T07:28:17.494Z,30.05
2023-06-07T07:29:20.468Z,30.59
2023-06-07T07:30:23.042Z,31.50
2023-06-07T07:31:25.601Z,31.35
2023-06-07T07:32:27.930Z,31.87
2023-06-07T07:33:30.251Z,31.86
2023-06-07T07:34:32.573Z,31.94
2023-06-07T07:35:35.110Z,32.14
2023-06-07T07:36:37.366Z,31.97
2023-06-07T07:37:40.861Z,32.22
2023-06-07T07:38:47.028Z,31.86
2023-06-07T07:39:49.508Z,31.12
2023-06-07T07:40:52.000Z,30.98
2023-06-07T07:41:54.742Z,31.02
2023-06-07T07:42:57.174Z,30.68
2023-06-07T07:43:59.496Z,29.34
2023-06-07T07:45:02.156Z,29.80
2023-06-07T07:46:04.850Z,29.00
2023-06-07T07:47:08.407Z,29.30
2023-06-07T07:48:11.060Z,29.42
2023-06-07T07:49:13.365Z,29.08
2023-06-07T07:50:17.581Z,28.83
2023-06-07T07:51:21.067Z,29.57
2023-06-07T07:52:23.859Z,30.35
2023-06-07T07:53:26.377Z,29.79
2023-06-07T07:54:30.640Z,29.13
2023-06-07T07:55:33.877Z,29.45
2023-06-07T07:56:36.557Z,29.04
2023-06-07T07:57:38.844Z,29.54
2023-06-07T07:58:41.297Z,29.27
2023-06-07T07:59:44.516Z,28.50
2023-06-07T08:00:46.953Z,28.01
2023-06-07T08:01:50.606Z,27.50
2023-06-07T08:02:52.920Z,28.22
2023-06-07T08:03:57.175Z,27.86
2023-06-07T08:05:10.170Z,27.48
2023-06-07T08:06:12.840Z,28.22
2023-06-07T08:07:18.496Z,29.10
2023-06-07T08:08:20.869Z,30.32
2023-06-07T08:09:23.734Z,29.86
2023-06-07T08:10:26.622Z,30.12
2023-06-07T08:11:29.060Z,29.75
2023-06-07T08:12:33.483Z,28.84
2023-06-07T08:13:37.194Z,28.49
2023-06-07T08:14:39.717Z,28.51
2023-06-07T08:15:42.095Z,28.45
2023-06-07T08:16:45.471Z,28.93
2023-06-07T08:17:50.641Z,30.04
2023-06-07T08:18:58.019Z,29.98
2023-06-07T08:20:00.622Z,29.72
2023-06-07T08:21:03.890Z,29.54
2023-06-07T08:22:06.758Z,29.99
2023-06-07T08:23:10.772Z,29.75
2023-06-07T08:24:14.551Z,29.50
2023-06-07T08:25:17.969Z,29.40
2023-06-07T08:26:20.402Z,29.13
2023-06-07T08:27:23.155Z,28.21
2023-06-07T08:28:26.324Z,27.71
2023-06-07T08:29:28.567Z,27.10
2023-06-07T08:30:31.109Z,26.45
2023-06-07T08:31:33.713Z,26.98
2023-06-07T08:32:36.321Z,26.98
2023-06-07T08:33:39.031Z,26.88
2023-06-07T08:34:41.742Z,26.55
2023-06-07T08:35:44.771Z,26.21
2023-06-07T08:36:49.412Z,26.62
2023-06-07T08:37:51.755Z,26.44
2023-06-07T08:38:54.101Z,27.44
2023-06-07T08:39:56.552Z,26.61
2023-06-07T08:41:01.901Z,26.28
2023-06-07T08:42:04.253Z,26.75
2023-06-07T08:43:08.615Z,26.64
2023-06-07T08:44:11.834Z,27.34
2023-06-07T08:45:16.332Z,27.37
2023-06-07T08:46:19.048Z,26.88
2023-06-07T08:47:23.259Z,26.44
2023-06-07T08:48:26.449Z,25.65
2023-06-07T08:49:34.580Z,25.95
2023-06-07T08:50:37.987Z,26.02
2023-06-07T08:51:43.164Z,26.76
2023-06-07T08:52:52.567Z,26.78
2023-06-07T08:53:57.250Z,27.47
2023-06-07T08:55:04.956Z,27.43
2023-06-07T08:56:08.131Z,27.30
2023-06-07T08:57:11.399Z,28.71
2023-06-07T08:58:16.694Z,28.28
2023-06-07T08:59:20.037Z,28.10
2023-06-07T09:00:23.948Z,27.78
2023-06-07T09:01:32.314Z,28.07
2023-06-07T09:02:35.120Z,27.71
2023-06-07T09:03:37.597Z,27.57
2023-06-07T09:04:43.821Z,27.03
2023-06-07T09:05:48.121Z,26.56
2023-06-07T09:06:52.397Z,26.01
2023-06-07T09:07:54.880Z,26.93
2023-06-07T09:08:57.792Z,26.95
2023-06-07T09:10:00.276Z,27.81
2023-06-07T09:11:02.531Z,28.82
2023-06-07T09:12:06.748Z,28.84
2023-06-07T09:13:09.346Z,28.94
2023-06-07T09:14:12.759Z,28.77
2023-06-07T09:15:22.654Z,28.61
2023-06-07T09:16:25.863Z,27.19
2023-06-07T09:17:56.591Z,26.89
2023-06-07T09:18:58.952Z,26.89
2023-06-07T09:20:01.435Z,26.45
2023-06-07T09:21:20.286Z,27.02
2023-06-07T09:22:26.859Z,27.28
2023-06-07T09:23:40.515Z,26.52
2023-06-07T09:24:43.364Z,27.45
2023-06-07T09:25:47.064Z,27.63
2023-06-07T09:26:49.403Z,27.15
2023-06-07T09:27:52.674Z,26.99
2023-06-07T09:28:55.199Z,27.21
2023-06-07T09:30:06.799Z,27.25
2023-06-07T09:31:11.532Z,26.94
2023-06-07T09:32:26.539Z,27.68
2023-06-07T09:33:36.845Z,28.11
2023-06-07T09:34:39.261Z,28.25
2023-06-07T09:35:41.622Z,28.40
2023-06-07T09:36:52.720Z,28.56
2023-06-07T09:38:00.341Z,28.49
2023-06-07T09:39:21.483Z,28.44
2023-06-07T09:40:24.576Z,28.44
2023-06-07T09:41:33.362Z,28.65
2023-06-07T09:42:35.824Z,28.77
2023-06-07T09:43:59.832Z,29.89
2023-06-07T09:45:16.733Z,29.27
2023-06-07T09:46:22.589Z,29.11
2023-06-07T09:47:25.532Z,28.87
2023-06-07T09:48:28.427Z,28.54
2023-06-07T09:49:36.020Z,29.14
2023-06-07T09:50:38.948Z,29.33
2023-06-07T09:51:44.291Z,28.74
2023-06-07T09:52:56.539Z,28.69
2023-06-07T09:54:06.698Z,28.43
2023-06-07T09:55:26.165Z,27.95
2023-06-07T09:56:28.808Z,28.85
2023-06-07T09:57:36.710Z,29.07
2023-06-07T09:58:39.010Z,29.64
2023-06-07T09:59:59.514Z,29.20
2023-06-07T10:01:02.260Z,28.90
2023-06-07T10:02:25.611Z,29.06
2023-06-07T10:03:28.608Z,28.52
2023-06-07T10:04:33.312Z,28.58
2023-06-07T10:05:36.180Z,28.47
2023-06-07T10:06:41.695Z,28.73
2023-06-07T10:07:45.861Z,28.31
2023-06-07T10:08:48.723Z,28.57
2023-06-07T10:09:54.973Z,28.41
2023-06-07T10:10:58.541Z,28.20
2023-06-07T10:12:00.981Z,28.01
2023-06-07T10:13:05.672Z,27.75
2023-06-07T10:14:12.392Z,28.19
2023-06-07T10:15:16.801Z,27.71
2023-06-07T10:16:21.156Z,27.99
2023-06-07T10:17:33.984Z,28.18
2023-06-07T10:18:38.327Z,27.75
2023-06-07T10:19:45.802Z,28.48
2023-06-07T10:21:00.667Z,28.25
2023-06-07T10:22:06.880Z,28.21
2023-06-07T10:23:15.215Z,28.40
2023-06-07T10:24:30.989Z,28.94
2023-06-07T10:25:45.089Z,28.64
2023-06-07T10:27:00.944Z,28.33
2023-06-07T10:28:20.876Z,29.27
2023-06-07T10:29:40.149Z,28.99
2023-06-07T10:30:49.472Z,29.00
2023-06-07T10:32:01.761Z,28.83
2023-06-07T10:33:09.283Z,28.58
2023-06-07T10:34:14.356Z,29.28
2023-06-07T10:35:18.424Z,28.91
2023-06-07T10:36:24.664Z,28.61
2023-06-07T10:37:32.084Z,28.92
2023-06-07T10:38:35.007Z,29.08
2023-06-07T10:39:39.302Z,29.29
2023-06-07T10:40:42.288Z,28.62
2023-06-07T10:41:45.218Z,28.94
2023-06-07T10:42:48.101Z,29.60
2023-06-07T10:43:51.321Z,30.02
2023-06-07T10:44:56.076Z,29.72
2023-06-07T10:46:17.788Z,30.02
2023-06-07T10:47:23.007Z,29.24
2023-06-07T10:48:35.605Z,29.42
2023-06-07T10:49:38.638Z,29.00
2023-06-07T10:50:48.710Z,28.70
2023-06-07T10:52:00.242Z,28.47
2023-06-07T10:53:03.495Z,28.66
2023-06-07T10:54:06.017Z,28.87
2023-06-07T10:55:33.281Z,29.75
2023-06-07T10:56:37.498Z,29.16
2023-06-07T10:57:40.366Z,28.34
2023-06-07T10:58:42.722Z,29.18
2023-06-07T10:59:45.216Z,30.11
2023-06-07T11:00:48.104Z,30.23
2023-06-07T11:01:52.199Z,30.63
2023-06-07T11:03:10.068Z,29.88
2023-06-07T11:04:41.677Z,30.09
2023-06-07T11:05:54.263Z,30.84
2023-06-07T11:07:15.698Z,30.36
2023-06-07T11:08:32.335Z,30.71
2023-06-07T11:09:35.179Z,31.60
2023-06-07T11:10:37.529Z,31.28
2023-06-07T11:11:40.129Z,31.56
2023-06-07T11:12:46.476Z,30.87
2023-06-07T11:13:54.866Z,31.34
2023-06-07T11:15:19.356Z,31.56
2023-06-07T11:16:25.652Z,31.74
2023-06-07T11:18:00.242Z,31.12
2023-06-07T11:19:10.390Z,31.09
2023-06-07T11:20:12.708Z,31.71
2023-06-07T11:21:15.219Z,31.66
2023-06-07T11:22:17.842Z,31.72
2023-06-07T11:23:27.068Z,31.73
2023-06-07T11:24:29.965Z,31.75
2023-06-07T11:25:38.409Z,31.54
2023-06-07T11:26:41.508Z,31.69
2023-06-07T11:27:44.488Z,31.32
2023-06-07T11:28:47.377Z,31.83
2023-06-07T11:29:52.228Z,31.69
2023-06-07T11:30:55.163Z,31.60
2023-06-07T11:32:02.717Z,30.99
2023-06-07T11:33:05.938Z,31.01
2023-06-07T11:34:10.895Z,31.40
2023-06-07T11:35:16.592Z,31.09
2023-06-07T11:36:20.699Z,31.37
2023-06-07T11:37:24.152Z,31.29
2023-06-07T11:38:29.798Z,31.14
2023-06-07T11:39:36.056Z,30.83
2023-06-07T11:40:38.411Z,30.54
2023-06-07T11:41:40.670Z,30.77
2023-06-07T11:42:42.930Z,30.60
2023-06-07T11:43:47.390Z,30.38
2023-06-07T11:44:49.741Z,30.62
2023-06-07T11:45:56.380Z,31.35
2023-06-07T11:46:59.404Z,32.04
2023-06-07T11:48:02.555Z,31.73
2023-06-07T11:49:09.085Z,31.94
2023-06-07T11:50:11.425Z,31.67
2023-06-07T11:51:13.788Z,31.49
2023-06-07T11:52:16.979Z,31.38
2023-06-07T11:53:19.341Z,31.18
2023-06-07T11:54:25.063Z,30.97
2023-06-07T11:55:27.611Z,31.03
2023-06-07T11:56:31.685Z,31.27
2023-06-07T11:57:38.234Z,31.01
2023-06-07T11:58:41.926Z,30.81
2023-06-07T11:59:45.366Z,30.33
2023-06-07T12:00:48.909Z,29.72
2023-06-07T12:01:53.709Z,29.11
2023-06-07T12:02:56.261Z,29.41
2023-06-07T12:03:59.256Z,29.43
2023-06-07T12:05:01.740Z,30.08
2023-06-07T12:06:05.891Z,30.20
2023-06-07T12:07:23.035Z,29.60
2023-06-07T12:08:32.715Z,30.13
2023-06-07T12:09:41.760Z,30.03
2023-06-07T12:10:56.538Z,29.62
2023-06-07T12:11:59.070Z,29.11
2023-06-07T12:13:27.824Z,28.35
2023-06-07T12:14:34.094Z,28.11
2023-06-07T12:15:46.279Z,28.26
2023-06-07T12:16:49.410Z,28.72
2023-06-07T12:17:52.611Z,28.29
2023-06-07T12:18:55.131Z,27.90
2023-06-07T12:20:10.784Z,28.48
2023-06-07T12:21:14.166Z,28.55
2023-06-07T12:22:16.484Z,29.03
2023-06-07T12:23:21.967Z,28.61
2023-06-07T12:24:24.397Z,29.24
2023-06-07T12:25:27.138Z,27.85
2023-06-07T12:26:32.225Z,28.02
2023-06-07T12:27:35.506Z,28.60
2023-06-07T12:28:40.072Z,28.27
2023-06-07T12:29:42.424Z,28.28
2023-06-07T12:30:48.131Z,28.30
2023-06-07T12:31:53.132Z,27.84
2023-06-07T12:33:00.277Z,27.68
2023-06-07T12:34:06.722Z,27.55
2023-06-07T12:35:12.441Z,27.45
2023-06-07T12:36:17.797Z,27.45
2023-06-07T12:37:20.151Z,26.95
2023-06-07T12:38:23.286Z,26.99
2023-06-07T12:39:30.527Z,26.87
2023-06-07T12:40:34.301Z,26.72
2023-06-07T12:41:37.564Z,26.30
2023-06-07T12:42:42.627Z,26.84
2023-06-07T12:43:49.100Z,26.72
2023-06-07T12:44:55.608Z,26.83
2023-06-07T12:45:59.174Z,27.26
2023-06-07T12:47:01.834Z,27.29
2023-06-07T12:48:05.090Z,27.25
2023-06-07T12:49:07.385Z,27.25
2023-06-07T12:50:10.406Z,27.12
2023-06-07T12:52:36.659Z,27.83
2023-06-07T12:53:39.785Z,27.45
2023-06-07T12:54:42.516Z,27.25
2023-06-07T12:55:44.741Z,27.79
2023-06-07T12:56:47.720Z,27.80
2023-06-07T12:57:50.065Z,27.91
2023-06-07T12:58:52.670Z,27.81
2023-06-07T12:59:55.134Z,28.44
2023-06-07T13:00:57.791Z,28.02
2023-06-07T13:02:00.489Z,27.80
2023-06-07T13:03:02.890Z,27.29
2023-06-07T13:04:05.723Z,27.31
2023-06-07T13:05:11.002Z,27.85
2023-06-07T13:06:13.286Z,27.64
2023-06-07T13:07:15.985Z,27.98
2023-06-07T13:08:18.757Z,28.13
2023-06-07T13:09:21.384Z,28.52
2023-06-07T13:10:25.476Z,28.30
2023-06-07T13:11:28.878Z,29.50
2023-06-07T13:12:32.288Z,30.04
2023-06-07T13:13:34.808Z,29.81
2023-06-07T13:14:37.680Z,29.78
2023-06-07T13:15:40.292Z,30.02
2023-06-07T13:16:44.513Z,29.69
2023-06-07T13:17:46.976Z,30.05
2023-06-07T13:18:49.737Z,30.38
2023-06-07T13:19:52.375Z,31.49
2023-06-07T13:20:54.862Z,32.12
2023-06-07T13:21:57.275Z,32.62
2023-06-07T13:22:59.659Z,33.74
2023-06-07T13:24:02.114Z,34.34
2023-06-07T13:25:04.540Z,34.19
2023-06-07T13:26:06.991Z,34.29
2023-06-07T13:27:10.091Z,34.27
2023-06-07T13:28:13.007Z,34.74
2023-06-07T13:29:15.247Z,34.88
2023-06-07T13:30:17.607Z,35.18
2023-06-07T13:31:20.223Z,35.06
2023-06-07T13:32:22.757Z,34.75
2023-06-07T13:33:25.025Z,34.87
2023-06-07T13:34:27.506Z,35.18
2023-06-07T13:35:33.671Z,34.98
2023-06-07T13:36:38.472Z,34.97
2023-06-07T13:37:41.254Z,35.61
2023-06-07T13:38:43.611Z,35.45
2023-06-07T13:39:45.984Z,35.31
2023-06-07T13:40:48.260Z,35.11
2023-06-07T13:41:51.662Z,34.67
2023-06-07T13:42:53.945Z,34.66
2023-06-07T13:45:02.448Z,34.29
2023-06-07T13:46:05.229Z,34.00
2023-06-07T13:47:08.972Z,33.76
2023-06-07T13:48:12.998Z,33.95
2023-06-07T13:49:15.926Z,34.03
2023-06-07T13:50:18.624Z,34.08
2023-06-07T13:51:20.906Z,33.79
2023-06-07T13:52:23.749Z,33.71
2023-06-07T13:53:28.381Z,33.75
2023-06-07T13:54:33.191Z,33.66